USTRANSCOM 7627


PWAK
Wake Island Airfield
Wake Island, UM
PHNL
Daniel K Inouye International Airport
Honolulu, US

Activity Log

Date Flight Route Aircraft Duration
08/19/2019 CMB827 AWK 2000N/17000E 2100N/18000E 2100N/17000W KATHS B752 5h 03m
03/15/2019 CMB827 AWK077135 NATIE A450 KATHS OPACA4 B752 4h 49m

Route Details

Aircraft Information
Primary: Boeing 757-200SF
Backup: Not Available
Route Data
Distance: 1998nm
Sched. Duration: 3h 58m
Avg. Duration: 4h 75m (+118m)
Times Flown: 2
Recm'd Route: AWK 2000N/17000E 2100N/18000E 2100N/17000W KATHS
Planned Altitude: 37,000ft
Origin Wx:
Dest. Wx: PHNL 251353Z 33005KT 10SM FEW025 22/21 A2992 RMK AO2 SLP131 T02170206 $
Notes: USTRANSCOM CONTRACT FLIGHT

Financial History
Total Freight: 50,358lbs
Average Load: 25,179lbs/flt
Fuel Used: 62,838lbs
Avg. Fuel Used: 31,419lbs/flt
Fuel Expense: $50,270
Avg. Fuel Expense: $25,135
Avg. Fuel Cost: $0.80/lbs
Total Gross Income: $74,530
Pilot Pay: $378
Total Expenses: $8,153
Total Revenue: $13,799
Average Revenue: $37,264.92